sensor_id;sensor_type;location;lat;lon;timestamp;pressure;altitude;pressure_sealevel;temperature
19282;BMP180;9774;52.034;5.342;2022-12-29T00:00:55;99744.00;;;16.60
19282;BMP180;9774;52.034;5.342;2022-12-29T00:03:26;99736.00;;;16.60
19282;BMP180;9774;52.034;5.342;2022-12-29T00:05:56;99733.00;;;16.60
19282;BMP180;9774;52.034;5.342;2022-12-29T00:08:24;99737.00;;;16.70
19282;BMP180;9774;52.034;5.342;2022-12-29T00:11:05;99716.00;;;16.70
19282;BMP180;9774;52.034;5.342;2022-12-29T00:13:34;99718.00;;;16.70
19282;BMP180;9774;52.034;5.342;2022-12-29T00:16:20;99718.00;;;16.70
19282;BMP180;9774;52.034;5.342;2022-12-29T00:18:47;99718.00;;;16.70
19282;BMP180;9774;52.034;5.342;2022-12-29T00:21:15;99702.00;;;16.70
19282;BMP180;9774;52.034;5.342;2022-12-29T00:24:01;99711.00;;;16.70
19282;BMP180;9774;52.034;5.342;2022-12-29T00:26:49;99705.00;;;16.70
19282;BMP180;9774;52.034;5.342;2022-12-29T00:29:37;99692.00;;;16.80
19282;BMP180;9774;52.034;5.342;2022-12-29T00:32:23;99698.00;;;16.70
19282;BMP180;9774;52.034;5.342;2022-12-29T00:35:09;99708.00;;;16.80
19282;BMP180;9774;52.034;5.342;2022-12-29T00:37:37;99689.00;;;16.80
19282;BMP180;9774;52.034;5.342;2022-12-29T00:40:25;99686.00;;;16.80
19282;BMP180;9774;52.034;5.342;2022-12-29T00:43:09;99699.00;;;16.80
19282;BMP180;9774;52.034;5.342;2022-12-29T00:45:54;99688.00;;;16.80
19282;BMP180;9774;52.034;5.342;2022-12-29T00:48:23;99677.00;;;16.80
19282;BMP180;9774;52.034;5.342;2022-12-29T00:51:04;99681.00;;;16.80
19282;BMP180;9774;52.034;5.342;2022-12-29T00:53:31;99673.00;;;16.80
19282;BMP180;9774;52.034;5.342;2022-12-29T00:55:59;99675.00;;;16.80
19282;BMP180;9774;52.034;5.342;2022-12-29T00:58:27;99670.00;;;16.80
19282;BMP180;9774;52.034;5.342;2022-12-29T01:01:01;99665.00;;;16.80
19282;BMP180;9774;52.034;5.342;2022-12-29T01:03:30;99653.00;;;16.90
19282;BMP180;9774;52.034;5.342;2022-12-29T01:06:00;99644.00;;;16.80
19282;BMP180;9774;52.034;5.342;2022-12-29T01:08:28;99644.00;;;16.90
19282;BMP180;9774;52.034;5.342;2022-12-29T01:10:59;99644.00;;;16.80
19282;BMP180;9774;52.034;5.342;2022-12-29T01:13:25;99642.00;;;16.90
19282;BMP180;9774;52.034;5.342;2022-12-29T01:15:53;99638.00;;;16.90
19282;BMP180;9774;52.034;5.342;2022-12-29T01:18:21;99642.00;;;16.80
19282;BMP180;9774;52.034;5.342;2022-12-29T01:20:49;99636.00;;;16.80
19282;BMP180;9774;52.034;5.342;2022-12-29T01:23:17;99635.00;;;16.80
19282;BMP180;9774;52.034;5.342;2022-12-29T01:25:44;99639.00;;;16.80
19282;BMP180;9774;52.034;5.342;2022-12-29T01:28:11;99633.00;;;16.70
19282;BMP180;9774;52.034;5.342;2022-12-29T01:30:40;99637.00;;;16.70
19282;BMP180;9774;52.034;5.342;2022-12-29T01:33:07;99633.00;;;16.70
19282;BMP180;9774;52.034;5.342;2022-12-29T01:35:34;99643.00;;;16.70
19282;BMP180;9774;52.034;5.342;2022-12-29T01:38:03;99632.00;;;16.60
19282;BMP180;9774;52.034;5.342;2022-12-29T01:40:30;99630.00;;;16.60
19282;BMP180;9774;52.034;5.342;2022-12-29T01:42:57;99635.00;;;16.60
19282;BMP180;9774;52.034;5.342;2022-12-29T01:45:25;99646.00;;;16.60
19282;BMP180;9774;52.034;5.342;2022-12-29T01:47:54;99638.00;;;16.50
19282;BMP180;9774;52.034;5.342;2022-12-29T01:50:27;99631.00;;;16.50
19282;BMP180;9774;52.034;5.342;2022-12-29T01:52:58;99639.00;;;16.50
19282;BMP180;9774;52.034;5.342;2022-12-29T01:55:29;99641.00;;;16.40
19282;BMP180;9774;52.034;5.342;2022-12-29T01:58:01;99634.00;;;16.40
19282;BMP180;9774;52.034;5.342;2022-12-29T02:00:29;99643.00;;;16.40
19282;BMP180;9774;52.034;5.342;2022-12-29T02:02:56;99641.00;;;16.40
19282;BMP180;9774;52.034;5.342;2022-12-29T02:05:27;99636.00;;;16.40
19282;BMP180;9774;52.034;5.342;2022-12-29T02:07:55;99637.00;;;16.40
19282;BMP180;9774;52.034;5.342;2022-12-29T02:10:24;99644.00;;;16.30
19282;BMP180;9774;52.034;5.342;2022-12-29T02:12:54;99651.00;;;16.30
19282;BMP180;9774;52.034;5.342;2022-12-29T02:15:27;99652.00;;;16.30
19282;BMP180;9774;52.034;5.342;2022-12-29T02:18:08;99645.00;;;16.20
19282;BMP180;9774;52.034;5.342;2022-12-29T02:27:16;99644.00;;;16.20
19282;BMP180;9774;52.034;5.342;2022-12-29T02:30:07;99631.00;;;16.10
19282;BMP180;9774;52.034;5.342;2022-12-29T02:32:45;99642.00;;;16.10
19282;BMP180;9774;52.034;5.342;2022-12-29T02:35:23;99636.00;;;16.10
19282;BMP180;9774;52.034;5.342;2022-12-29T02:37:59;99647.00;;;16.10
19282;BMP180;9774;52.034;5.342;2022-12-29T02:40:35;99645.00;;;16.10
19282;BMP180;9774;52.034;5.342;2022-12-29T02:43:10;99644.00;;;16.20
19282;BMP180;9774;52.034;5.342;2022-12-29T02:45:47;99639.00;;;16.10
19282;BMP180;9774;52.034;5.342;2022-12-29T02:48:24;99641.00;;;16.20
19282;BMP180;9774;52.034;5.342;2022-12-29T02:50:57;99634.00;;;16.20
19282;BMP180;9774;52.034;5.342;2022-12-29T02:53:27;99638.00;;;16.20
19282;BMP180;9774;52.034;5.342;2022-12-29T02:56:13;99624.00;;;16.30
19282;BMP180;9774;52.034;5.342;2022-12-29T02:58:40;99637.00;;;16.30
19282;BMP180;9774;52.034;5.342;2022-12-29T03:01:23;99641.00;;;16.20
19282;BMP180;9774;52.034;5.342;2022-12-29T03:04:06;99639.00;;;16.20
19282;BMP180;9774;52.034;5.342;2022-12-29T03:06:50;99644.00;;;16.20
19282;BMP180;9774;52.034;5.342;2022-12-29T03:09:26;99642.00;;;16.30
19282;BMP180;9774;52.034;5.342;2022-12-29T03:11:59;99639.00;;;16.20
19282;BMP180;9774;52.034;5.342;2022-12-29T03:14:52;99633.00;;;16.20
19282;BMP180;9774;52.034;5.342;2022-12-29T03:17:46;99638.00;;;16.20
19282;BMP180;9774;52.034;5.342;2022-12-29T03:20:19;99640.00;;;16.20
19282;BMP180;9774;52.034;5.342;2022-12-29T03:22:49;99644.00;;;16.20
19282;BMP180;9774;52.034;5.342;2022-12-29T03:25:22;99643.00;;;16.20
19282;BMP180;9774;52.034;5.342;2022-12-29T03:27:54;99636.00;;;16.20
19282;BMP180;9774;52.034;5.342;2022-12-29T03:30:23;99636.00;;;16.20
19282;BMP180;9774;52.034;5.342;2022-12-29T03:32:53;99628.00;;;16.20
19282;BMP180;9774;52.034;5.342;2022-12-29T03:35:26;99614.00;;;16.20
19282;BMP180;9774;52.034;5.342;2022-12-29T03:37:58;99619.00;;;16.10
19282;BMP180;9774;52.034;5.342;2022-12-29T03:40:27;99619.00;;;16.10
19282;BMP180;9774;52.034;5.342;2022-12-29T03:42:55;99609.00;;;16.10
19282;BMP180;9774;52.034;5.342;2022-12-29T03:45:23;99601.00;;;16.10
19282;BMP180;9774;52.034;5.342;2022-12-29T03:47:51;99608.00;;;16.10
19282;BMP180;9774;52.034;5.342;2022-12-29T03:50:19;99600.00;;;16.00
19282;BMP180;9774;52.034;5.342;2022-12-29T03:52:48;99612.00;;;16.00
19282;BMP180;9774;52.034;5.342;2022-12-29T03:55:15;99610.00;;;16.00
19282;BMP180;9774;52.034;5.342;2022-12-29T03:57:42;99619.00;;;16.00
19282;BMP180;9774;52.034;5.342;2022-12-29T04:00:10;99613.00;;;15.90
19282;BMP180;9774;52.034;5.342;2022-12-29T04:02:38;99613.00;;;15.90
19282;BMP180;9774;52.034;5.342;2022-12-29T04:05:06;99606.00;;;15.90
19282;BMP180;9774;52.034;5.342;2022-12-29T04:07:33;99603.00;;;15.90
19282;BMP180;9774;52.034;5.342;2022-12-29T04:10:02;99606.00;;;15.90
19282;BMP180;9774;52.034;5.342;2022-12-29T04:12:29;99602.00;;;15.90
19282;BMP180;9774;52.034;5.342;2022-12-29T04:14:56;99599.00;;;15.90
19282;BMP180;9774;52.034;5.342;2022-12-29T04:17:23;99612.00;;;15.90
19282;BMP180;9774;52.034;5.342;2022-12-29T04:19:51;99611.00;;;15.90
19282;BMP180;9774;52.034;5.342;2022-12-29T04:22:38;99616.00;;;15.80
19282;BMP180;9774;52.034;5.342;2022-12-29T04:25:07;99620.00;;;15.80
19282;BMP180;9774;52.034;5.342;2022-12-29T04:27:35;99632.00;;;15.80
19282;BMP180;9774;52.034;5.342;2022-12-29T04:30:02;99635.00;;;15.80
19282;BMP180;9774;52.034;5.342;2022-12-29T04:32:30;99630.00;;;15.80
19282;BMP180;9774;52.034;5.342;2022-12-29T04:34:57;99638.00;;;15.80
19282;BMP180;9774;52.034;5.342;2022-12-29T04:37:24;99637.00;;;15.70
19282;BMP180;9774;52.034;5.342;2022-12-29T04:39:51;99646.00;;;15.70
19282;BMP180;9774;52.034;5.342;2022-12-29T04:42:20;99620.00;;;15.70
19282;BMP180;9774;52.034;5.342;2022-12-29T04:44:47;99656.00;;;15.70
19282;BMP180;9774;52.034;5.342;2022-12-29T04:47:14;99654.00;;;15.70
19282;BMP180;9774;52.034;5.342;2022-12-29T04:49:42;99649.00;;;15.70
19282;BMP180;9774;52.034;5.342;2022-12-29T04:52:09;99652.00;;;15.70
19282;BMP180;9774;52.034;5.342;2022-12-29T04:54:36;99663.00;;;15.70
19282;BMP180;9774;52.034;5.342;2022-12-29T04:57:03;99657.00;;;15.70
19282;BMP180;9774;52.034;5.342;2022-12-29T04:59:32;99676.00;;;15.70
19282;BMP180;9774;52.034;5.342;2022-12-29T05:01:59;99664.00;;;15.70
19282;BMP180;9774;52.034;5.342;2022-12-29T05:04:27;99676.00;;;15.70
19282;BMP180;9774;52.034;5.342;2022-12-29T05:06:54;99672.00;;;15.70
19282;BMP180;9774;52.034;5.342;2022-12-29T05:09:21;99670.00;;;15.70
19282;BMP180;9774;52.034;5.342;2022-12-29T05:11:49;99684.00;;;15.70
19282;BMP180;9774;52.034;5.342;2022-12-29T05:14:17;99686.00;;;15.70
19282;BMP180;9774;52.034;5.342;2022-12-29T05:16:45;99680.00;;;15.70
19282;BMP180;9774;52.034;5.342;2022-12-29T05:19:12;99672.00;;;15.70
19282;BMP180;9774;52.034;5.342;2022-12-29T05:21:40;99686.00;;;15.70
19282;BMP180;9774;52.034;5.342;2022-12-29T05:24:07;99686.00;;;15.70
19282;BMP180;9774;52.034;5.342;2022-12-29T05:26:34;99691.00;;;15.70
19282;BMP180;9774;52.034;5.342;2022-12-29T05:29:02;99686.00;;;15.70
19282;BMP180;9774;52.034;5.342;2022-12-29T05:31:29;99694.00;;;15.70
19282;BMP180;9774;52.034;5.342;2022-12-29T05:33:58;99680.00;;;15.70
19282;BMP180;9774;52.034;5.342;2022-12-29T05:36:25;99686.00;;;15.70
19282;BMP180;9774;52.034;5.342;2022-12-29T05:38:52;99687.00;;;15.70
19282;BMP180;9774;52.034;5.342;2022-12-29T05:41:20;99665.00;;;15.70
19282;BMP180;9774;52.034;5.342;2022-12-29T05:43:47;99669.00;;;15.70
19282;BMP180;9774;52.034;5.342;2022-12-29T05:46:14;99674.00;;;15.70
19282;BMP180;9774;52.034;5.342;2022-12-29T05:48:42;99674.00;;;15.70
19282;BMP180;9774;52.034;5.342;2022-12-29T05:51:11;99672.00;;;15.70
19282;BMP180;9774;52.034;5.342;2022-12-29T05:53:38;99682.00;;;15.70
19282;BMP180;9774;52.034;5.342;2022-12-29T05:56:06;99671.00;;;15.70
19282;BMP180;9774;52.034;5.342;2022-12-29T05:58:33;99682.00;;;15.70
19282;BMP180;9774;52.034;5.342;2022-12-29T06:01:00;99683.00;;;15.70
19282;BMP180;9774;52.034;5.342;2022-12-29T06:03:27;99705.00;;;15.70
19282;BMP180;9774;52.034;5.342;2022-12-29T06:05:55;99696.00;;;15.70
19282;BMP180;9774;52.034;5.342;2022-12-29T06:08:23;99715.00;;;15.70
19282;BMP180;9774;52.034;5.342;2022-12-29T06:10:51;99702.00;;;15.80
19282;BMP180;9774;52.034;5.342;2022-12-29T06:13:18;99700.00;;;15.80
19282;BMP180;9774;52.034;5.342;2022-12-29T06:15:47;99710.00;;;15.80
19282;BMP180;9774;52.034;5.342;2022-12-29T06:18:14;99698.00;;;15.80
19282;BMP180;9774;52.034;5.342;2022-12-29T06:20:42;99702.00;;;15.80
19282;BMP180;9774;52.034;5.342;2022-12-29T06:23:09;99696.00;;;15.80
19282;BMP180;9774;52.034;5.342;2022-12-29T06:25:39;99707.00;;;15.80
19282;BMP180;9774;52.034;5.342;2022-12-29T06:28:06;99705.00;;;15.80
19282;BMP180;9774;52.034;5.342;2022-12-29T06:30:34;99717.00;;;15.80
19282;BMP180;9774;52.034;5.342;2022-12-29T06:33:01;99737.00;;;15.80
19282;BMP180;9774;52.034;5.342;2022-12-29T06:35:28;99734.00;;;15.80
19282;BMP180;9774;52.034;5.342;2022-12-29T06:37:55;99731.00;;;15.80
19282;BMP180;9774;52.034;5.342;2022-12-29T06:40:23;99751.00;;;15.80
19282;BMP180;9774;52.034;5.342;2022-12-29T06:42:51;99750.00;;;15.80
19282;BMP180;9774;52.034;5.342;2022-12-29T06:45:19;99754.00;;;15.80
19282;BMP180;9774;52.034;5.342;2022-12-29T06:47:46;99744.00;;;15.70
19282;BMP180;9774;52.034;5.342;2022-12-29T06:50:13;99745.00;;;15.70
19282;BMP180;9774;52.034;5.342;2022-12-29T06:52:40;99743.00;;;15.70
19282;BMP180;9774;52.034;5.342;2022-12-29T06:55:08;99735.00;;;15.70
19282;BMP180;9774;52.034;5.342;2022-12-29T06:57:35;99738.00;;;15.60
19282;BMP180;9774;52.034;5.342;2022-12-29T07:00:05;99738.00;;;15.60
19282;BMP180;9774;52.034;5.342;2022-12-29T07:02:32;99753.00;;;15.60
19282;BMP180;9774;52.034;5.342;2022-12-29T07:05:00;99763.00;;;15.50
19282;BMP180;9774;52.034;5.342;2022-12-29T07:07:27;99778.00;;;15.50
19282;BMP180;9774;52.034;5.342;2022-12-29T07:09:54;99787.00;;;15.50
19282;BMP180;9774;52.034;5.342;2022-12-29T07:12:21;99780.00;;;15.40
19282;BMP180;9774;52.034;5.342;2022-12-29T07:14:49;99774.00;;;15.40
19282;BMP180;9774;52.034;5.342;2022-12-29T07:17:17;99753.00;;;15.30
19282;BMP180;9774;52.034;5.342;2022-12-29T07:19:44;99741.00;;;15.30
19282;BMP180;9774;52.034;5.342;2022-12-29T07:22:12;99750.00;;;15.20
19282;BMP180;9774;52.034;5.342;2022-12-29T07:24:39;99760.00;;;15.20
19282;BMP180;9774;52.034;5.342;2022-12-29T07:27:06;99757.00;;;15.10
19282;BMP180;9774;52.034;5.342;2022-12-29T07:29:34;99769.00;;;15.00
19282;BMP180;9774;52.034;5.342;2022-12-29T07:32:01;99778.00;;;15.00
19282;BMP180;9774;52.034;5.342;2022-12-29T07:34:29;99787.00;;;14.90
19282;BMP180;9774;52.034;5.342;2022-12-29T07:36:57;99781.00;;;14.90
19282;BMP180;9774;52.034;5.342;2022-12-29T07:39:24;99782.00;;;14.80
19282;BMP180;9774;52.034;5.342;2022-12-29T07:41:52;99784.00;;;14.80
19282;BMP180;9774;52.034;5.342;2022-12-29T07:44:22;99783.00;;;14.70
19282;BMP180;9774;52.034;5.342;2022-12-29T07:46:49;99776.00;;;14.70
19282;BMP180;9774;52.034;5.342;2022-12-29T07:49:16;99778.00;;;14.70
19282;BMP180;9774;52.034;5.342;2022-12-29T07:51:46;99773.00;;;14.70
19282;BMP180;9774;52.034;5.342;2022-12-29T07:54:14;99785.00;;;14.70
19282;BMP180;9774;52.034;5.342;2022-12-29T07:56:44;99783.00;;;14.70
19282;BMP180;9774;52.034;5.342;2022-12-29T07:59:14;99786.00;;;14.70
19282;BMP180;9774;52.034;5.342;2022-12-29T08:01:42;99794.00;;;14.70
19282;BMP180;9774;52.034;5.342;2022-12-29T08:04:10;99789.00;;;14.70
19282;BMP180;9774;52.034;5.342;2022-12-29T08:06:41;99790.00;;;14.70
19282;BMP180;9774;52.034;5.342;2022-12-29T08:09:10;99780.00;;;14.80
19282;BMP180;9774;52.034;5.342;2022-12-29T08:11:40;99765.00;;;14.80
19282;BMP180;9774;52.034;5.342;2022-12-29T08:14:10;99778.00;;;14.80
19282;BMP180;9774;52.034;5.342;2022-12-29T08:16:38;99786.00;;;14.80
19282;BMP180;9774;52.034;5.342;2022-12-29T08:19:05;99773.00;;;14.90
19282;BMP180;9774;52.034;5.342;2022-12-29T08:21:33;99779.00;;;14.90
19282;BMP180;9774;52.034;5.342;2022-12-29T08:24:00;99781.00;;;14.90
19282;BMP180;9774;52.034;5.342;2022-12-29T08:26:32;99775.00;;;14.90
19282;BMP180;9774;52.034;5.342;2022-12-29T08:28:59;99776.00;;;15.00
19282;BMP180;9774;52.034;5.342;2022-12-29T08:31:27;99778.00;;;15.00
19282;BMP180;9774;52.034;5.342;2022-12-29T08:33:54;99769.00;;;15.00
19282;BMP180;9774;52.034;5.342;2022-12-29T08:36:22;99791.00;;;15.10
19282;BMP180;9774;52.034;5.342;2022-12-29T08:38:49;99775.00;;;15.10
19282;BMP180;9774;52.034;5.342;2022-12-29T08:41:17;99784.00;;;15.10
19282;BMP180;9774;52.034;5.342;2022-12-29T08:43:48;99782.00;;;15.10
19282;BMP180;9774;52.034;5.342;2022-12-29T08:46:16;99791.00;;;15.10
19282;BMP180;9774;52.034;5.342;2022-12-29T08:48:44;99788.00;;;15.20
19282;BMP180;9774;52.034;5.342;2022-12-29T08:51:12;99780.00;;;15.20
19282;BMP180;9774;52.034;5.342;2022-12-29T08:53:39;99788.00;;;15.20
19282;BMP180;9774;52.034;5.342;2022-12-29T08:56:08;99788.00;;;15.20
19282;BMP180;9774;52.034;5.342;2022-12-29T08:58:36;99793.00;;;15.20
19282;BMP180;9774;52.034;5.342;2022-12-29T09:01:05;99793.00;;;15.20
19282;BMP180;9774;52.034;5.342;2022-12-29T09:03:33;99790.00;;;15.20
19282;BMP180;9774;52.034;5.342;2022-12-29T09:06:01;99788.00;;;15.20
19282;BMP180;9774;52.034;5.342;2022-12-29T09:08:28;99799.00;;;15.20
19282;BMP180;9774;52.034;5.342;2022-12-29T09:11:07;99799.00;;;15.20
19282;BMP180;9774;52.034;5.342;2022-12-29T09:13:35;99809.00;;;15.20
19282;BMP180;9774;52.034;5.342;2022-12-29T09:16:04;99807.00;;;15.20
19282;BMP180;9774;52.034;5.342;2022-12-29T09:18:32;99821.00;;;15.30
19282;BMP180;9774;52.034;5.342;2022-12-29T09:21:03;99827.00;;;15.30
19282;BMP180;9774;52.034;5.342;2022-12-29T09:23:32;99818.00;;;15.30
19282;BMP180;9774;52.034;5.342;2022-12-29T09:26:00;99831.00;;;15.30
19282;BMP180;9774;52.034;5.342;2022-12-29T09:28:28;99826.00;;;15.30
19282;BMP180;9774;52.034;5.342;2022-12-29T09:30:57;99846.00;;;15.30
19282;BMP180;9774;52.034;5.342;2022-12-29T09:33:27;99848.00;;;15.30
19282;BMP180;9774;52.034;5.342;2022-12-29T09:35:56;99862.00;;;15.30
19282;BMP180;9774;52.034;5.342;2022-12-29T09:38:26;99852.00;;;15.40
19282;BMP180;9774;52.034;5.342;2022-12-29T09:40:55;99860.00;;;15.40
19282;BMP180;9774;52.034;5.342;2022-12-29T09:43:42;99870.00;;;15.30
19282;BMP180;9774;52.034;5.342;2022-12-29T09:46:17;99879.00;;;15.30
19282;BMP180;9774;52.034;5.342;2022-12-29T09:48:50;99901.00;;;15.30
19282;BMP180;9774;52.034;5.342;2022-12-29T09:51:23;99888.00;;;15.30
19282;BMP180;9774;52.034;5.342;2022-12-29T09:53:53;99897.00;;;15.30
19282;BMP180;9774;52.034;5.342;2022-12-29T09:56:24;99895.00;;;15.30
19282;BMP180;9774;52.034;5.342;2022-12-29T09:58:55;99899.00;;;15.30
19282;BMP180;9774;52.034;5.342;2022-12-29T10:01:30;99893.00;;;15.30
19282;BMP180;9774;52.034;5.342;2022-12-29T10:04:00;99898.00;;;15.30
19282;BMP180;9774;52.034;5.342;2022-12-29T10:06:36;99909.00;;;15.30
19282;BMP180;9774;52.034;5.342;2022-12-29T10:09:11;99909.00;;;15.30
19282;BMP180;9774;52.034;5.342;2022-12-29T10:11:57;99909.00;;;15.20
19282;BMP180;9774;52.034;5.342;2022-12-29T10:14:38;99910.00;;;15.20
19282;BMP180;9774;52.034;5.342;2022-12-29T10:17:20;99904.00;;;15.20
19282;BMP180;9774;52.034;5.342;2022-12-29T10:20:02;99920.00;;;15.20
19282;BMP180;9774;52.034;5.342;2022-12-29T10:22:40;99925.00;;;15.20
19282;BMP180;9774;52.034;5.342;2022-12-29T10:25:16;99928.00;;;15.20
19282;BMP180;9774;52.034;5.342;2022-12-29T10:27:47;99929.00;;;15.30
19282;BMP180;9774;52.034;5.342;2022-12-29T10:30:16;99940.00;;;15.30
19282;BMP180;9774;52.034;5.342;2022-12-29T10:32:47;99943.00;;;15.30
19282;BMP180;9774;52.034;5.342;2022-12-29T10:35:20;99952.00;;;15.30
19282;BMP180;9774;52.034;5.342;2022-12-29T10:37:52;99947.00;;;15.30
19282;BMP180;9774;52.034;5.342;2022-12-29T10:40:24;99952.00;;;15.30
19282;BMP180;9774;52.034;5.342;2022-12-29T10:42:54;99953.00;;;15.30
19282;BMP180;9774;52.034;5.342;2022-12-29T10:45:25;99954.00;;;15.30
19282;BMP180;9774;52.034;5.342;2022-12-29T10:47:57;99978.00;;;15.30
19282;BMP180;9774;52.034;5.342;2022-12-29T10:50:28;99985.00;;;15.30
19282;BMP180;9774;52.034;5.342;2022-12-29T10:52:57;99979.00;;;15.30
19282;BMP180;9774;52.034;5.342;2022-12-29T10:55:28;99978.00;;;15.30
19282;BMP180;9774;52.034;5.342;2022-12-29T10:58:01;99986.00;;;15.30
19282;BMP180;9774;52.034;5.342;2022-12-29T11:00:31;99995.00;;;15.30
19282;BMP180;9774;52.034;5.342;2022-12-29T11:06:05;100006.00;;;15.30
19282;BMP180;9774;52.034;5.342;2022-12-29T11:08:38;100014.00;;;15.30
19282;BMP180;9774;52.034;5.342;2022-12-29T11:11:08;100015.00;;;15.30
19282;BMP180;9774;52.034;5.342;2022-12-29T11:13:48;100020.00;;;15.20
19282;BMP180;9774;52.034;5.342;2022-12-29T11:16:27;100018.00;;;15.30
19282;BMP180;9774;52.034;5.342;2022-12-29T11:18:57;100041.00;;;15.40
19282;BMP180;9774;52.034;5.342;2022-12-29T11:21:31;100037.00;;;15.30
19282;BMP180;9774;52.034;5.342;2022-12-29T11:24:00;100030.00;;;15.40
19282;BMP180;9774;52.034;5.342;2022-12-29T11:26:28;100040.00;;;15.40
19282;BMP180;9774;52.034;5.342;2022-12-29T11:29:16;100052.00;;;15.20
19282;BMP180;9774;52.034;5.342;2022-12-29T11:31:45;100052.00;;;15.30
19282;BMP180;9774;52.034;5.342;2022-12-29T11:34:18;100047.00;;;15.20
19282;BMP180;9774;52.034;5.342;2022-12-29T11:36:47;100054.00;;;15.30
19282;BMP180;9774;52.034;5.342;2022-12-29T11:39:34;100056.00;;;15.10
19282;BMP180;9774;52.034;5.342;2022-12-29T11:42:04;100054.00;;;15.20
19282;BMP180;9774;52.034;5.342;2022-12-29T11:44:37;100055.00;;;15.20
19282;BMP180;9774;52.034;5.342;2022-12-29T11:47:06;100054.00;;;15.20
19282;BMP180;9774;52.034;5.342;2022-12-29T11:49:34;100051.00;;;15.20
19282;BMP180;9774;52.034;5.342;2022-12-29T11:52:03;100067.00;;;15.20
19282;BMP180;9774;52.034;5.342;2022-12-29T11:54:33;100068.00;;;15.20
19282;BMP180;9774;52.034;5.342;2022-12-29T11:57:10;100068.00;;;15.10
19282;BMP180;9774;52.034;5.342;2022-12-29T11:59:42;100070.00;;;15.20
19282;BMP180;9774;52.034;5.342;2022-12-29T12:02:38;100063.00;;;15.10
19282;BMP180;9774;52.034;5.342;2022-12-29T12:05:19;100074.00;;;15.30
19282;BMP180;9774;52.034;5.342;2022-12-29T12:07:52;100081.00;;;15.40
19282;BMP180;9774;52.034;5.342;2022-12-29T12:10:24;100065.00;;;15.50
19282;BMP180;9774;52.034;5.342;2022-12-29T12:13:00;100077.00;;;15.50
19282;BMP180;9774;52.034;5.342;2022-12-29T12:15:34;100086.00;;;15.60
19282;BMP180;9774;52.034;5.342;2022-12-29T12:18:08;100068.00;;;15.60
19282;BMP180;9774;52.034;5.342;2022-12-29T12:20:43;100080.00;;;15.70
19282;BMP180;9774;52.034;5.342;2022-12-29T12:23:32;100077.00;;;15.70
19282;BMP180;9774;52.034;5.342;2022-12-29T12:26:11;100094.00;;;15.80
19282;BMP180;9774;52.034;5.342;2022-12-29T12:28:45;100076.00;;;15.80
19282;BMP180;9774;52.034;5.342;2022-12-29T12:31:24;100080.00;;;15.80
19282;BMP180;9774;52.034;5.342;2022-12-29T12:33:58;100092.00;;;15.90
19282;BMP180;9774;52.034;5.342;2022-12-29T12:36:43;100100.00;;;15.90
19282;BMP180;9774;52.034;5.342;2022-12-29T12:39:21;100103.00;;;15.90
19282;BMP180;9774;52.034;5.342;2022-12-29T12:42:00;100099.00;;;15.90
19282;BMP180;9774;52.034;5.342;2022-12-29T12:44:37;100097.00;;;15.90
19282;BMP180;9774;52.034;5.342;2022-12-29T12:50:22;100108.00;;;15.90
19282;BMP180;9774;52.034;5.342;2022-12-29T12:53:08;100110.00;;;15.90
19282;BMP180;9774;52.034;5.342;2022-12-29T12:55:57;100106.00;;;15.80
19282;BMP180;9774;52.034;5.342;2022-12-29T12:58:31;100110.00;;;15.90
19282;BMP180;9774;52.034;5.342;2022-12-29T13:01:14;100109.00;;;15.80
19282;BMP180;9774;52.034;5.342;2022-12-29T13:03:59;100120.00;;;15.80
19282;BMP180;9774;52.034;5.342;2022-12-29T13:06:37;100118.00;;;15.90
19282;BMP180;9774;52.034;5.342;2022-12-29T13:09:32;100113.00;;;15.80
19282;BMP180;9774;52.034;5.342;2022-12-29T13:12:18;100122.00;;;15.80
19282;BMP180;9774;52.034;5.342;2022-12-29T13:14:59;100123.00;;;15.90
19282;BMP180;9774;52.034;5.342;2022-12-29T13:17:33;100114.00;;;15.90
19282;BMP180;9774;52.034;5.342;2022-12-29T13:20:11;100133.00;;;15.90
19282;BMP180;9774;52.034;5.342;2022-12-29T13:22:48;100120.00;;;16.00
19282;BMP180;9774;52.034;5.342;2022-12-29T13:25:27;100125.00;;;15.90
19282;BMP180;9774;52.034;5.342;2022-12-29T13:28:01;100133.00;;;16.00
19282;BMP180;9774;52.034;5.342;2022-12-29T13:30:33;100123.00;;;16.00
19282;BMP180;9774;52.034;5.342;2022-12-29T13:33:06;100139.00;;;16.00
19282;BMP180;9774;52.034;5.342;2022-12-29T13:35:52;100140.00;;;15.90
19282;BMP180;9774;52.034;5.342;2022-12-29T13:38:24;100139.00;;;15.90
19282;BMP180;9774;52.034;5.342;2022-12-29T13:40:56;100145.00;;;15.90
19282;BMP180;9774;52.034;5.342;2022-12-29T13:43:28;100137.00;;;15.90
19282;BMP180;9774;52.034;5.342;2022-12-29T13:45:59;100138.00;;;15.90
19282;BMP180;9774;52.034;5.342;2022-12-29T13:48:36;100140.00;;;15.80
19282;BMP180;9774;52.034;5.342;2022-12-29T13:51:04;100134.00;;;15.80
19282;BMP180;9774;52.034;5.342;2022-12-29T13:53:37;100148.00;;;15.80
19282;BMP180;9774;52.034;5.342;2022-12-29T13:56:14;100147.00;;;15.80
19282;BMP180;9774;52.034;5.342;2022-12-29T13:58:53;100147.00;;;15.80
19282;BMP180;9774;52.034;5.342;2022-12-29T14:01:24;100150.00;;;15.80
19282;BMP180;9774;52.034;5.342;2022-12-29T14:03:56;100161.00;;;15.80
19282;BMP180;9774;52.034;5.342;2022-12-29T14:06:26;100152.00;;;15.70
19282;BMP180;9774;52.034;5.342;2022-12-29T14:08:55;100154.00;;;15.70
19282;BMP180;9774;52.034;5.342;2022-12-29T14:11:28;100164.00;;;15.70
19282;BMP180;9774;52.034;5.342;2022-12-29T14:13:58;100176.00;;;15.70
19282;BMP180;9774;52.034;5.342;2022-12-29T14:16:35;100158.00;;;15.50
19282;BMP180;9774;52.034;5.342;2022-12-29T14:19:12;100168.00;;;15.50
19282;BMP180;9774;52.034;5.342;2022-12-29T14:21:40;100189.00;;;15.50
19282;BMP180;9774;52.034;5.342;2022-12-29T14:24:41;100179.00;;;15.30
19282;BMP180;9774;52.034;5.342;2022-12-29T14:27:44;100188.00;;;15.20
19282;BMP180;9774;52.034;5.342;2022-12-29T14:30:47;100179.00;;;15.10
19282;BMP180;9774;52.034;5.342;2022-12-29T14:33:15;100172.00;;;15.20
19282;BMP180;9774;52.034;5.342;2022-12-29T14:35:45;100167.00;;;15.10
19282;BMP180;9774;52.034;5.342;2022-12-29T14:38:30;100166.00;;;14.90
19282;BMP180;9774;52.034;5.342;2022-12-29T14:41:32;100166.00;;;14.90
19282;BMP180;9774;52.034;5.342;2022-12-29T14:44:10;100176.00;;;15.00
19282;BMP180;9774;52.034;5.342;2022-12-29T14:46:47;100172.00;;;15.00
19282;BMP180;9774;52.034;5.342;2022-12-29T14:49:19;100165.00;;;14.90
19282;BMP180;9774;52.034;5.342;2022-12-29T14:51:48;100169.00;;;14.90
19282;BMP180;9774;52.034;5.342;2022-12-29T14:54:42;100160.00;;;14.80
19282;BMP180;9774;52.034;5.342;2022-12-29T14:57:18;100175.00;;;14.90
19282;BMP180;9774;52.034;5.342;2022-12-29T14:59:46;100184.00;;;14.90